Time;durP1;ratioP1;P1;durP2;ratioP2;P2;SDS_P1;SDS_P2;PMS_P1;PMS_P2;Temp;Humidity;BMP_temperature;BMP_pressure;BME280_temperature;BME280_humidity;BME280_pressure;Samples;Min_cycle;Max_cycle;Signal;HPM_P1;HPM_P2
2022/05/27 00:01:09;;;;;;;5.30;3.15;;;;;;;;;;6300489;28;20044;-59
2022/05/27 00:04:09;;;;;;;7.28;3.33;;;;;;;;;;6290909;28;20115;-59
2022/05/27 00:07:10;;;;;;;5.80;3.00;;;;;;;;;;6291979;28;20520;-59
2022/05/27 00:10:13;;;;;;;6.68;3.33;;;;;;;;;;6292311;28;20059;-60
2022/05/27 00:13:13;;;;;;;5.80;3.20;;;;;;;;;;6291796;28;20040;-59
2022/05/27 00:16:14;;;;;;;7.57;3.03;;;;;;;;;;6289994;28;20047;-59
2022/05/27 00:19:16;;;;;;;6.93;3.13;;;;;;;;;;6294197;28;20060;-59
2022/05/27 00:22:17;;;;;;;4.38;2.88;;;;;;;;;;6290627;28;20040;-58
2022/05/27 00:25:19;;;;;;;5.10;2.60;;;;;;;;;;6292821;28;20139;-60
2022/05/27 00:28:19;;;;;;;4.53;2.70;;;;;;;;;;6296174;28;21960;-58
2022/05/27 00:31:20;;;;;;;6.03;2.80;;;;;;;;;;6297797;28;20099;-59
2022/05/27 00:34:21;;;;;;;6.18;2.67;;;;;;;;;;6297001;28;20067;-59
2022/05/27 00:37:21;;;;;;;4.43;2.70;;;;;;;;;;6295301;28;20028;-58
2022/05/27 00:40:24;;;;;;;6.15;2.70;;;;;;;;;;6296583;28;20041;-57
2022/05/27 00:43:25;;;;;;;6.60;2.97;;;;;;;;;;6289853;28;20135;-58
2022/05/27 00:46:29;;;;;;;6.50;2.78;;;;;;;;;;6296701;28;20564;-58
2022/05/27 00:49:29;;;;;;;6.80;2.90;;;;;;;;;;6294047;28;20037;-58
2022/05/27 00:52:34;;;;;;;6.35;2.90;;;;;;;;;;6290241;28;20062;-59
2022/05/27 00:55:43;;;;;;;5.00;2.90;;;;;;;;;;6293164;28;20052;-59
2022/05/27 00:58:48;;;;;;;5.43;2.80;;;;;;;;;;6291298;28;20041;-59
2022/05/27 01:01:49;;;;;;;6.72;3.10;;;;;;;;;;6290033;28;20040;-58
2022/05/27 01:04:51;;;;;;;7.68;3.58;;;;;;;;;;6296945;28;20102;-58
2022/05/27 01:08:01;;;;;;;7.03;2.67;;;;;;;;;;6295322;28;20102;-57
2022/05/27 01:11:23;;;;;;;5.80;2.47;;;;;;;;;;6291865;28;20060;-59
2022/05/27 01:14:39;;;;;;;5.60;2.80;;;;;;;;;;6294844;28;20037;-59
2022/05/27 01:17:48;;;;;;;4.93;3.40;;;;;;;;;;6291626;28;20514;-59
2022/05/27 01:20:55;;;;;;;5.18;2.85;;;;;;;;;;6296583;28;20414;-58
2022/05/27 01:24:12;;;;;;;4.93;2.60;;;;;;;;;;6292362;28;20052;-58
2022/05/27 01:27:18;;;;;;;5.90;2.70;;;;;;;;;;6294302;28;20040;-58
2022/05/27 01:30:23;;;;;;;4.70;2.42;;;;;;;;;;6289907;28;20130;-59
2022/05/27 01:33:58;;;;;;;4.25;2.60;;;;;;;;;;6289454;28;20036;-58
2022/05/27 01:37:22;;;;;;;5.28;2.50;;;;;;;;;;6288077;28;20045;-59
2022/05/27 01:40:33;;;;;;;4.28;2.10;;;;;;;;;;6285997;28;20048;-60
2022/05/27 01:43:59;;;;;;;6.67;2.40;;;;;;;;;;6296295;28;20121;-58
2022/05/27 01:47:02;;;;;;;4.07;2.17;;;;;;;;;;6303021;28;20442;-56
2022/05/27 01:50:15;;;;;;;5.30;2.60;;;;;;;;;;6287968;28;20051;-59
2022/05/27 01:53:42;;;;;;;4.68;2.63;;;;;;;;;;6286542;28;20412;-59
2022/05/27 01:56:54;;;;;;;4.82;2.45;;;;;;;;;;6285201;28;20296;-59
2022/05/27 02:00:13;;;;;;;4.05;2.38;;;;;;;;;;6286380;28;20089;-59
2022/05/27 02:03:16;;;;;;;5.90;3.00;;;;;;;;;;6286703;28;20095;-58
2022/05/27 02:06:28;;;;;;;5.13;2.40;;;;;;;;;;6284302;28;20063;-58
2022/05/27 02:09:38;;;;;;;5.40;2.63;;;;;;;;;;6284719;28;20051;-59
2022/05/27 02:13:01;;;;;;;5.03;2.85;;;;;;;;;;6284079;28;20040;-59
2022/05/27 02:16:03;;;;;;;7.07;3.22;;;;;;;;;;6287512;28;20409;-58
2022/05/27 02:19:06;;;;;;;8.68;3.15;;;;;;;;;;6294704;28;20055;-56
2022/05/27 02:22:17;;;;;;;7.00;3.47;;;;;;;;;;6295796;28;20067;-59
2022/05/27 02:25:23;;;;;;;10.20;4.45;;;;;;;;;;6286415;28;20040;-58
2022/05/27 02:28:31;;;;;;;6.97;3.95;;;;;;;;;;6286308;28;20507;-58
2022/05/27 02:31:35;;;;;;;10.02;4.65;;;;;;;;;;6286572;28;20053;-58
2022/05/27 02:35:08;;;;;;;8.20;3.88;;;;;;;;;;6285013;28;20044;-56
2022/05/27 02:38:08;;;;;;;11.45;4.57;;;;;;;;;;6286240;28;20928;-57
2022/05/27 02:41:16;;;;;;;10.00;4.35;;;;;;;;;;6287141;28;20052;-58
2022/05/27 02:44:41;;;;;;;9.68;4.53;;;;;;;;;;6285009;28;20059;-59
2022/05/27 02:48:01;;;;;;;9.48;4.68;;;;;;;;;;6283902;28;20064;-59
2022/05/27 02:51:02;;;;;;;11.57;4.95;;;;;;;;;;6285202;28;20055;-59
2022/05/27 02:54:37;;;;;;;8.98;4.65;;;;;;;;;;6289722;28;20070;-57
2022/05/27 02:57:44;;;;;;;12.18;5.35;;;;;;;;;;6292000;28;20410;-59
2022/05/27 03:00:46;;;;;;;11.02;5.65;;;;;;;;;;6284665;28;20519;-60
2022/05/27 03:03:46;;;;;;;11.00;5.37;;;;;;;;;;6287475;28;20052;-58
2022/05/27 03:07:00;;;;;;;10.20;5.10;;;;;;;;;;6287848;28;20311;-60
2022/05/27 03:10:26;;;;;;;11.68;5.38;;;;;;;;;;6283469;28;20372;-60
2022/05/27 03:13:36;;;;;;;9.82;4.72;;;;;;;;;;6288781;28;20057;-59
2022/05/27 03:17:01;;;;;;;12.40;5.13;;;;;;;;;;6299278;28;20050;-59
2022/05/27 03:20:08;;;;;;;10.88;5.68;;;;;;;;;;6292374;28;20055;-59
2022/05/27 03:23:46;;;;;;;11.55;4.68;;;;;;;;;;6295035;28;20412;-60
2022/05/27 03:27:21;;;;;;;10.32;5.10;;;;;;;;;;6298623;28;20052;-60
2022/05/27 03:30:31;;;;;;;9.10;4.90;;;;;;;;;;6307879;28;20051;-58
2022/05/27 03:33:54;;;;;;;8.55;4.90;;;;;;;;;;6296035;28;20198;-58
2022/05/27 03:37:08;;;;;;;9.98;4.95;;;;;;;;;;6288466;28;20044;-60
2022/05/27 03:40:15;;;;;;;12.10;4.50;;;;;;;;;;6292798;28;20039;-59
2022/05/27 03:43:17;;;;;;;7.65;4.45;;;;;;;;;;6298059;28;20086;-59
2022/05/27 03:46:50;;;;;;;9.90;4.90;;;;;;;;;;6293433;28;20487;-60
2022/05/27 03:49:51;;;;;;;8.57;4.60;;;;;;;;;;6255202;28;20052;-60
2022/05/27 03:52:54;;;;;;;9.32;4.38;;;;;;;;;;6301421;28;20520;-60
2022/05/27 03:55:54;;;;;;;8.30;4.18;;;;;;;;;;6291078;28;20523;-59
2022/05/27 03:58:55;;;;;;;8.10;3.80;;;;;;;;;;6298362;28;20048;-61
2022/05/27 04:01:56;;;;;;;9.52;4.15;;;;;;;;;;6303124;28;20063;-58
2022/05/27 04:04:57;;;;;;;9.30;4.23;;;;;;;;;;6290972;28;20091;-60
2022/05/27 04:07:57;;;;;;;10.45;4.10;;;;;;;;;;6289344;28;20301;-60
2022/05/27 04:10:58;;;;;;;10.40;4.10;;;;;;;;;;6295365;28;20036;-59
2022/05/27 04:13:59;;;;;;;9.90;3.92;;;;;;;;;;6300186;28;20140;-59
2022/05/27 04:20:20;;;;;;;6.68;3.80;;;;;;;;;;6299311;28;20471;-59
2022/05/27 04:23:20;;;;;;;7.97;3.72;;;;;;;;;;6286491;28;20520;-60
2022/05/27 04:26:22;;;;;;;8.43;3.55;;;;;;;;;;6288542;28;20053;-59
2022/05/27 04:29:23;;;;;;;6.50;3.50;;;;;;;;;;6301562;28;20086;-60
2022/05/27 04:32:27;;;;;;;6.88;3.13;;;;;;;;;;6299518;28;20085;-59
2022/05/27 04:35:28;;;;;;;7.68;3.50;;;;;;;;;;6298214;28;20044;-59
2022/05/27 04:38:28;;;;;;;9.82;5.00;;;;;;;;;;6294562;28;20377;-59
2022/05/27 04:41:29;;;;;;;10.77;5.28;;;;;;;;;;6290085;28;21741;-58
2022/05/27 04:44:30;;;;;;;9.48;5.50;;;;;;;;;;6292381;28;20127;-60
2022/05/27 04:47:31;;;;;;;9.15;5.95;;;;;;;;;;6289517;28;20037;-59
2022/05/27 04:50:31;;;;;;;6.30;3.65;;;;;;;;;;6291630;28;20139;-60
2022/05/27 04:53:32;;;;;;;8.60;3.20;;;;;;;;;;6291771;28;20597;-60
2022/05/27 04:56:33;;;;;;;7.28;3.05;;;;;;;;;;6303155;28;20127;-60
2022/05/27 04:59:36;;;;;;;10.07;3.33;;;;;;;;;;6283998;28;20483;-59
2022/05/27 05:02:36;;;;;;;5.78;2.88;;;;;;;;;;6293627;28;20049;-59
2022/05/27 05:05:37;;;;;;;6.60;2.95;;;;;;;;;;6297439;28;20457;-60
2022/05/27 05:08:39;;;;;;;6.78;3.13;;;;;;;;;;6295934;28;20750;-60
2022/05/27 05:11:40;;;;;;;7.72;2.90;;;;;;;;;;6289031;28;20103;-59
2022/05/27 05:14:41;;;;;;;6.47;2.90;;;;;;;;;;6288163;28;20144;-59
2022/05/27 05:17:43;;;;;;;6.68;2.90;;;;;;;;;;6288341;28;20041;-59
2022/05/27 05:20:43;;;;;;;8.93;3.55;;;;;;;;;;6287995;28;20533;-59
2022/05/27 05:23:44;;;;;;;5.25;2.80;;;;;;;;;;6288748;28;20041;-58
2022/05/27 05:26:46;;;;;;;6.97;2.85;;;;;;;;;;6288450;28;20044;-59
2022/05/27 05:29:46;;;;;;;6.18;3.10;;;;;;;;;;6286246;28;20052;-60
2022/05/27 05:32:47;;;;;;;7.13;3.08;;;;;;;;;;6286740;28;20632;-59
2022/05/27 05:35:48;;;;;;;17.38;3.67;;;;;;;;;;6286410;28;20037;-60
2022/05/27 05:38:48;;;;;;;8.18;3.30;;;;;;;;;;6299548;28;20119;-59
2022/05/27 05:42:01;;;;;;;9.90;3.63;;;;;;;;;;6289165;28;20040;-59
2022/05/27 05:45:03;;;;;;;9.13;3.28;;;;;;;;;;6290838;28;20384;-60
2022/05/27 05:48:04;;;;;;;5.45;3.30;;;;;;;;;;6286947;28;20051;-60
2022/05/27 05:51:05;;;;;;;8.23;3.58;;;;;;;;;;6289221;28;20123;-59
2022/05/27 05:54:05;;;;;;;9.15;3.60;;;;;;;;;;6290030;28;20050;-60
2022/05/27 05:57:06;;;;;;;7.95;3.28;;;;;;;;;;6287178;28;20060;-59
2022/05/27 06:00:09;;;;;;;8.90;4.03;;;;;;;;;;6288333;28;20075;-59
2022/05/27 06:03:11;;;;;;;8.77;3.65;;;;;;;;;;6288963;28;20118;-60
2022/05/27 06:06:11;;;;;;;9.25;3.92;;;;;;;;;;6296895;28;20131;-59
2022/05/27 06:09:12;;;;;;;8.73;4.00;;;;;;;;;;6286762;28;20051;-60
2022/05/27 06:12:15;;;;;;;9.18;4.15;;;;;;;;;;6286068;28;20040;-60
2022/05/27 06:15:15;;;;;;;7.28;3.80;;;;;;;;;;6283035;28;20048;-60
2022/05/27 06:18:16;;;;;;;7.28;4.10;;;;;;;;;;6286319;28;20064;-59
2022/05/27 06:21:17;;;;;;;9.48;3.80;;;;;;;;;;6307920;28;20058;-60
2022/05/27 06:24:18;;;;;;;8.32;3.65;;;;;;;;;;6291719;28;20114;-60
2022/05/27 06:27:19;;;;;;;7.32;4.00;;;;;;;;;;6286222;28;20044;-60
2022/05/27 06:37:14;;;;;;;7.55;3.88;;;;;;;;;;6283811;28;20499;-59
2022/05/27 06:40:16;;;;;;;11.48;3.75;;;;;;;;;;6286748;28;20048;-59
2022/05/27 06:43:16;;;;;;;8.70;3.80;;;;;;;;;;6287385;28;20080;-60
2022/05/27 06:46:17;;;;;;;9.93;3.35;;;;;;;;;;6287267;28;20047;-60
2022/05/27 06:49:19;;;;;;;10.10;3.72;;;;;;;;;;6285618;28;20051;-60
2022/05/27 06:52:20;;;;;;;7.63;3.50;;;;;;;;;;6289277;28;20057;-60
2022/05/27 06:55:21;;;;;;;10.30;3.63;;;;;;;;;;6285114;28;20041;-59
2022/05/27 06:58:22;;;;;;;9.63;3.90;;;;;;;;;;6284519;28;20043;-59
2022/05/27 07:01:22;;;;;;;8.25;3.47;;;;;;;;;;6287038;28;20502;-60
2022/05/27 07:04:23;;;;;;;8.45;3.70;;;;;;;;;;6294202;28;20052;-60
2022/05/27 07:07:27;;;;;;;5.70;2.92;;;;;;;;;;6285637;28;20041;-60
2022/05/27 07:10:28;;;;;;;8.80;3.55;;;;;;;;;;6293481;28;20044;-60
2022/05/27 07:13:30;;;;;;;10.18;3.42;;;;;;;;;;6286993;28;20048;-59
2022/05/27 07:16:31;;;;;;;8.02;3.20;;;;;;;;;;6283718;28;20045;-60
2022/05/27 07:19:32;;;;;;;6.40;3.53;;;;;;;;;;6287303;28;20553;-59
2022/05/27 07:22:32;;;;;;;9.05;4.00;;;;;;;;;;6282883;28;20037;-59
2022/05/27 07:25:35;;;;;;;9.15;3.67;;;;;;;;;;6284831;28;20041;-59
2022/05/27 07:28:35;;;;;;;10.15;3.55;;;;;;;;;;6285241;28;20134;-59
2022/05/27 07:31:38;;;;;;;8.60;3.78;;;;;;;;;;6289748;28;20060;-60
2022/05/27 07:34:39;;;;;;;8.77;3.90;;;;;;;;;;6285158;28;20946;-59
2022/05/27 07:37:39;;;;;;;8.63;3.90;;;;;;;;;;6285261;28;20068;-59
2022/05/27 07:40:40;;;;;;;9.65;4.35;;;;;;;;;;6283757;28;20864;-60
2022/05/27 07:43:42;;;;;;;10.00;3.95;;;;;;;;;;6288837;28;20106;-59
2022/05/27 07:46:42;;;;;;;9.75;4.18;;;;;;;;;;6287641;28;20062;-59
2022/05/27 07:49:43;;;;;;;10.23;4.28;;;;;;;;;;6287298;28;20044;-60
2022/05/27 07:52:44;;;;;;;8.25;4.20;;;;;;;;;;6285015;28;20152;-60
2022/05/27 07:55:45;;;;;;;7.47;4.35;;;;;;;;;;6284936;28;20052;-59
2022/05/27 07:58:46;;;;;;;9.40;3.38;;;;;;;;;;6291165;28;20155;-60
2022/05/27 08:01:47;;;;;;;10.85;3.63;;;;;;;;;;6284030;28;20080;-60
2022/05/27 08:04:48;;;;;;;7.30;3.20;;;;;;;;;;6285399;28;20044;-61
2022/05/27 08:07:49;;;;;;;9.50;2.90;;;;;;;;;;6283002;28;20052;-60
2022/05/27 08:10:50;;;;;;;5.80;2.80;;;;;;;;;;6297961;28;20055;-61
2022/05/27 08:13:51;;;;;;;7.10;2.95;;;;;;;;;;6294358;28;20593;-59
2022/05/27 08:16:52;;;;;;;5.35;2.80;;;;;;;;;;6289310;28;20059;-59
2022/05/27 08:19:53;;;;;;;6.17;2.87;;;;;;;;;;6289608;28;20040;-59
2022/05/27 08:22:53;;;;;;;6.97;2.70;;;;;;;;;;6291887;28;20041;-60
2022/05/27 08:25:55;;;;;;;5.93;3.00;;;;;;;;;;6288711;28;20060;-59
2022/05/27 08:28:55;;;;;;;5.83;3.10;;;;;;;;;;6288199;28;20135;-60
2022/05/27 08:31:56;;;;;;;7.50;2.92;;;;;;;;;;6288437;28;20067;-59
2022/05/27 08:38:22;;;;;;;6.30;3.00;;;;;;;;;;6290757;28;20044;-60
2022/05/27 08:41:43;;;;;;;7.95;3.30;;;;;;;;;;6293664;28;20052;-60
2022/05/27 08:45:08;;;;;;;7.07;3.00;;;;;;;;;;6293920;28;20083;-59
2022/05/27 08:48:10;;;;;;;7.82;3.35;;;;;;;;;;6293026;28;20043;-61
2022/05/27 08:51:20;;;;;;;7.10;2.70;;;;;;;;;;6290263;28;20419;-60
2022/05/27 08:54:26;;;;;;;5.35;2.70;;;;;;;;;;6291624;28;20055;-58
2022/05/27 09:00:47;;;;;;;5.75;2.80;;;;;;;;;;6291138;28;20214;-61
2022/05/27 09:03:56;;;;;;;5.83;2.50;;;;;;;;;;6291168;28;20048;-59
2022/05/27 09:07:06;;;;;;;4.90;2.65;;;;;;;;;;6291697;28;20106;-60
2022/05/27 09:10:12;;;;;;;11.60;2.80;;;;;;;;;;6293074;28;20828;-59
2022/05/27 09:13:22;;;;;;;9.57;2.83;;;;;;;;;;6287646;28;20048;-60
2022/05/27 09:16:36;;;;;;;6.97;2.67;;;;;;;;;;6296322;28;20048;-60
2022/05/27 09:19:54;;;;;;;4.88;2.90;;;;;;;;;;6294288;28;20055;-60
2022/05/27 09:23:19;;;;;;;6.32;2.80;;;;;;;;;;6284324;28;20063;-58
2022/05/27 09:26:42;;;;;;;6.10;2.78;;;;;;;;;;6291969;28;20091;-59
2022/05/27 09:29:53;;;;;;;6.88;2.78;;;;;;;;;;6291289;28;20052;-58
2022/05/27 09:32:56;;;;;;;6.60;2.88;;;;;;;;;;6290002;28;20055;-60
2022/05/27 09:36:06;;;;;;;7.25;2.80;;;;;;;;;;6287343;28;20063;-59
2022/05/27 09:39:11;;;;;;;7.05;2.45;;;;;;;;;;6289102;28;20052;-59
2022/05/27 09:42:32;;;;;;;6.38;2.40;;;;;;;;;;6291151;28;20074;-58
2022/05/27 09:45:35;;;;;;;6.88;2.45;;;;;;;;;;6285297;28;20064;-59
2022/05/27 09:48:36;;;;;;;7.45;2.72;;;;;;;;;;6291846;28;20194;-59
2022/05/27 09:51:37;;;;;;;4.30;2.30;;;;;;;;;;6280329;28;20048;-60
2022/05/27 09:55:34;;;;;;;8.67;3.10;;;;;;;;;;6284033;28;20167;-60
2022/05/27 09:58:38;;;;;;;5.88;2.50;;;;;;;;;;6281227;28;20309;-60
2022/05/27 10:01:39;;;;;;;10.07;2.60;;;;;;;;;;6284600;28;20044;-58
2022/05/27 10:04:54;;;;;;;6.90;2.87;;;;;;;;;;6283961;28;20059;-60
2022/05/27 10:08:00;;;;;;;7.35;3.00;;;;;;;;;;6289622;28;20166;-60
2022/05/27 10:11:14;;;;;;;5.95;2.75;;;;;;;;;;6289150;28;20045;-59
2022/05/27 10:14:19;;;;;;;6.65;2.95;;;;;;;;;;6289808;28;20189;-60
2022/05/27 10:17:35;;;;;;;5.53;2.70;;;;;;;;;;6284242;28;20048;-61
2022/05/27 10:20:36;;;;;;;11.15;2.90;;;;;;;;;;6282826;28;20073;-60
2022/05/27 10:23:42;;;;;;;9.27;2.97;;;;;;;;;;6282921;28;20044;-60
2022/05/27 10:26:43;;;;;;;9.07;2.85;;;;;;;;;;6286331;28;20070;-60
2022/05/27 10:29:59;;;;;;;6.72;3.10;;;;;;;;;;6289098;28;20041;-59
2022/05/27 10:33:19;;;;;;;8.07;2.30;;;;;;;;;;6283834;28;20609;-60
2022/05/27 10:36:34;;;;;;;8.13;2.60;;;;;;;;;;6288993;28;20123;-58
2022/05/27 10:39:57;;;;;;;5.32;2.53;;;;;;;;;;6284529;28;20083;-60
2022/05/27 10:43:21;;;;;;;6.63;2.83;;;;;;;;;;6279345;28;20056;-60
2022/05/27 10:46:27;;;;;;;8.75;2.50;;;;;;;;;;6293134;28;20403;-59
2022/05/27 10:50:05;;;;;;;9.32;2.70;;;;;;;;;;6283548;28;20044;-59
2022/05/27 10:53:28;;;;;;;5.20;2.50;;;;;;;;;;6284269;28;20072;-59
2022/05/27 11:04:33;;;;;;;10.55;3.10;;;;;;;;;;6281793;28;20048;-60
2022/05/27 11:07:49;;;;;;;9.73;3.05;;;;;;;;;;6273192;28;20143;-60
2022/05/27 11:11:07;;;;;;;7.80;2.78;;;;;;;;;;6280086;28;20053;-60
2022/05/27 11:18:22;;;;;;;8.27;3.97;;;;;;;;;;6289257;28;20045;-59
2022/05/27 11:21:22;;;;;;;7.63;3.80;;;;;;;;;;6282282;28;20076;-61
2022/05/27 11:24:41;;;;;;;10.93;3.80;;;;;;;;;;6285535;28;20093;-60
2022/05/27 11:28:19;;;;;;;10.77;3.60;;;;;;;;;;6282401;28;20054;-58
2022/05/27 11:31:48;;;;;;;10.85;3.90;;;;;;;;;;6281961;28;20082;-58
2022/05/27 11:35:05;;;;;;;11.68;3.83;;;;;;;;;;6280960;28;20096;-58
2022/05/27 11:38:47;;;;;;;8.77;4.32;;;;;;;;;;6287547;28;20087;-58
2022/05/27 11:42:32;;;;;;;7.35;4.32;;;;;;;;;;6269735;28;20134;-58
2022/05/27 11:45:34;;;;;;;8.70;4.30;;;;;;;;;;6232721;28;20060;-60
2022/05/27 11:49:18;;;;;;;6.53;4.18;;;;;;;;;;6288064;28;20151;-60
2022/05/27 11:52:47;;;;;;;8.43;3.80;;;;;;;;;;6279709;28;20052;-59
2022/05/27 11:55:50;;;;;;;6.72;3.95;;;;;;;;;;6288582;28;20081;-59
2022/05/27 11:59:05;;;;;;;9.70;4.63;;;;;;;;;;6289374;28;20147;-59
2022/05/27 12:02:25;;;;;;;10.60;4.20;;;;;;;;;;6288510;28;20180;-60
2022/05/27 12:05:37;;;;;;;8.70;4.05;;;;;;;;;;6283366;28;20407;-60
2022/05/27 12:08:51;;;;;;;10.90;4.90;;;;;;;;;;6292024;28;20164;-59
2022/05/27 12:11:58;;;;;;;9.27;4.80;;;;;;;;;;6286149;28;20042;-60
2022/05/27 12:15:04;;;;;;;13.60;5.35;;;;;;;;;;6284451;28;20082;-60
2022/05/27 12:18:15;;;;;;;13.32;5.78;;;;;;;;;;6288363;28;20137;-57
2022/05/27 12:21:22;;;;;;;13.80;6.10;;;;;;;;;;6286254;28;20474;-59
2022/05/27 12:24:31;;;;;;;13.55;6.28;;;;;;;;;;6288857;28;20615;-59
2022/05/27 12:27:33;;;;;;;14.00;10.52;;;;;;;;;;6287468;28;20055;-57
2022/05/27 12:30:39;;;;;;;;;;;;;;;;;;6284266;28;20726;-58
2022/05/27 12:33:40;;;;;;;20.42;12.63;;;;;;;;;;6291420;28;20054;-59
2022/05/27 12:36:40;;;;;;;18.15;9.90;;;;;;;;;;6299516;28;20048;-58
2022/05/27 12:39:43;;;;;;;10.10;5.90;;;;;;;;;;6302537;28;20094;-57
2022/05/27 12:42:44;;;;;;;8.93;4.43;;;;;;;;;;6287961;28;20131;-59
2022/05/27 12:46:00;;;;;;;5.45;2.88;;;;;;;;;;6299077;28;20526;-58
2022/05/27 12:49:35;;;;;;;8.82;3.83;;;;;;;;;;6303330;28;20051;-58
2022/05/27 12:52:35;;;;;;;6.68;3.10;;;;;;;;;;6286397;28;20152;-58
2022/05/27 13:02:43;;;;;;;5.43;2.97;;;;;;;;;;6284468;28;20078;-56
2022/05/27 13:06:05;;;;;;;5.50;2.70;;;;;;;;;;6283077;28;20080;-59
2022/05/27 13:09:29;;;;;;;5.78;2.70;;;;;;;;;;6297250;28;20084;-56
2022/05/27 13:12:46;;;;;;;7.03;3.20;;;;;;;;;;6299020;28;20139;-57
2022/05/27 13:16:06;;;;;;;4.60;2.53;;;;;;;;;;6301096;28;20491;-59
2022/05/27 13:19:22;;;;;;;6.13;3.08;;;;;;;;;;6300072;28;20139;-58
2022/05/27 13:22:56;;;;;;;4.60;2.80;;;;;;;;;;6295885;28;20055;-57
2022/05/27 13:26:13;;;;;;;6.75;3.45;;;;;;;;;;6285994;28;20101;-59
2022/05/27 13:29:24;;;;;;;11.55;6.03;;;;;;;;;;6283202;28;20044;-57
2022/05/27 13:32:34;;;;;;;12.93;7.90;;;;;;;;;;6284685;28;20151;-58
2022/05/27 13:35:46;;;;;;;14.30;8.55;;;;;;;;;;6286794;28;20055;-59
2022/05/27 13:39:08;;;;;;;;;;;;;;;;;;6287490;28;20084;-59
2022/05/27 13:42:11;;;;;;;9.15;5.32;;;;;;;;;;6281591;28;19927;-58
2022/05/27 13:45:29;;;;;;;11.02;5.47;;;;;;;;;;6285907;28;20051;-58
2022/05/27 13:48:36;;;;;;;8.95;4.45;;;;;;;;;;6287372;28;20507;-58
2022/05/27 13:51:44;;;;;;;8.50;4.43;;;;;;;;;;6281090;28;20114;-58
2022/05/27 13:54:45;;;;;;;9.52;4.72;;;;;;;;;;6288123;28;20689;-59
2022/05/27 13:57:46;;;;;;;8.13;4.22;;;;;;;;;;6289880;28;20065;-58
2022/05/27 14:00:48;;;;;;;6.82;4.05;;;;;;;;;;6287616;28;20425;-55
2022/05/27 14:04:01;;;;;;;7.45;4.25;;;;;;;;;;6286888;28;20543;-59
2022/05/27 14:07:02;;;;;;;7.53;3.60;;;;;;;;;;6288893;28;20555;-59
2022/05/27 14:10:27;;;;;;;8.40;4.13;;;;;;;;;;6281562;28;20052;-57
2022/05/27 14:13:31;;;;;;;8.23;3.80;;;;;;;;;;6271731;28;21001;-60
2022/05/27 14:16:34;;;;;;;5.93;2.92;;;;;;;;;;6286145;28;21288;-59
2022/05/27 14:19:34;;;;;;;7.65;3.50;;;;;;;;;;6286160;28;20051;-60
2022/05/27 14:22:47;;;;;;;7.03;2.63;;;;;;;;;;6283912;28;20048;-60
2022/05/27 14:25:48;;;;;;;4.90;2.42;;;;;;;;;;6284566;28;20044;-59
2022/05/27 14:28:52;;;;;;;5.25;2.40;;;;;;;;;;6285178;28;20451;-59
2022/05/27 14:32:05;;;;;;;5.47;2.45;;;;;;;;;;6283002;28;20843;-59
2022/05/27 14:35:08;;;;;;;6.70;2.90;;;;;;;;;;6287499;28;20080;-59
2022/05/27 14:38:13;;;;;;;4.45;2.30;;;;;;;;;;6285953;28;20052;-59
2022/05/27 14:41:18;;;;;;;5.50;2.60;;;;;;;;;;6283603;28;20066;-58
2022/05/27 14:44:28;;;;;;;6.00;2.80;;;;;;;;;;6280993;28;20048;-59
2022/05/27 14:47:32;;;;;;;7.00;3.25;;;;;;;;;;6283253;28;20135;-60
2022/05/27 14:50:34;;;;;;;6.57;2.58;;;;;;;;;;6290996;28;20084;-59
2022/05/27 14:53:35;;;;;;;4.50;2.53;;;;;;;;;;6283964;28;20189;-59
2022/05/27 14:56:35;;;;;;;7.47;3.10;;;;;;;;;;6284950;28;20056;-58
2022/05/27 14:59:37;;;;;;;5.57;3.03;;;;;;;;;;6280711;28;20059;-59
2022/05/27 15:02:40;;;;;;;11.00;3.17;;;;;;;;;;6282764;28;21310;-60
2022/05/27 15:05:42;;;;;;;10.10;3.67;;;;;;;;;;6299617;28;20048;-59
2022/05/27 15:09:04;;;;;;;7.72;3.55;;;;;;;;;;6298561;28;20132;-59
2022/05/27 15:12:20;;;;;;;7.40;3.15;;;;;;;;;;6296668;28;20130;-59
2022/05/27 15:15:41;;;;;;;7.50;3.30;;;;;;;;;;6296936;28;20492;-59
2022/05/27 15:18:47;;;;;;;8.95;3.63;;;;;;;;;;6297572;28;20083;-60
2022/05/27 15:21:57;;;;;;;7.70;3.60;;;;;;;;;;6296784;28;20427;-59
2022/05/27 15:25:06;;;;;;;10.80;4.35;;;;;;;;;;6300504;28;20076;-59
2022/05/27 15:34:59;;;;;;;7.28;3.72;;;;;;;;;;6306228;28;20067;-55
2022/05/27 15:38:02;;;;;;;10.38;3.63;;;;;;;;;;6301296;28;20154;-58
2022/05/27 15:41:04;;;;;;;7.18;3.88;;;;;;;;;;6300477;28;20044;-58
2022/05/27 15:44:05;;;;;;;8.27;3.53;;;;;;;;;;6301277;28;20059;-57
2022/05/27 15:47:06;;;;;;;7.88;4.07;;;;;;;;;;6302614;28;20511;-57
2022/05/27 15:50:08;;;;;;;9.13;4.10;;;;;;;;;;6300648;28;20098;-59
2022/05/27 15:53:11;;;;;;;8.57;4.20;;;;;;;;;;6298998;28;20123;-57
2022/05/27 15:59:27;;;;;;;10.57;4.47;;;;;;;;;;5942622;22;20061;-58
2022/05/27 16:02:27;;;;;;;8.82;4.88;;;;;;;;;;6278235;28;20503;-57
2022/05/27 16:05:28;;;;;;;12.98;5.93;;;;;;;;;;6281774;28;20119;-57
2022/05/27 16:08:29;;;;;;;17.83;7.15;;;;;;;;;;6279313;28;20041;-58
2022/05/27 16:11:30;;;;;;;11.73;7.00;;;;;;;;;;6279063;28;20864;-57
2022/05/27 16:14:31;;;;;;;12.02;6.57;;;;;;;;;;6279288;28;20052;-55
2022/05/27 16:20:51;;;;;;;12.73;7.28;;;;;;;;;;6281232;28;20155;-59
2022/05/27 16:23:52;;;;;;;14.25;6.88;;;;;;;;;;6272468;28;20426;-58
2022/05/27 16:26:53;;;;;;;15.07;8.13;;;;;;;;;;6280015;28;20514;-58
2022/05/27 16:29:53;;;;;;;12.13;6.45;;;;;;;;;;6268630;28;20044;-59
2022/05/27 16:32:54;;;;;;;10.77;6.57;;;;;;;;;;6275116;28;20067;-60
2022/05/27 16:35:57;;;;;;;13.00;6.63;;;;;;;;;;6277270;28;20239;-58
2022/05/27 16:38:58;;;;;;;15.85;8.63;;;;;;;;;;6277239;28;20048;-59
2022/05/27 16:41:58;;;;;;;13.50;7.93;;;;;;;;;;6276809;28;20051;-57
2022/05/27 16:44:59;;;;;;;15.73;7.30;;;;;;;;;;6279950;28;20079;-58
2022/05/27 16:48:00;;;;;;;15.77;7.75;;;;;;;;;;6274400;28;20068;-53
2022/05/27 16:51:01;;;;;;;14.52;7.18;;;;;;;;;;6280662;28;20040;-59
2022/05/27 16:54:02;;;;;;;11.02;6.82;;;;;;;;;;6276833;28;20453;-59
2022/05/27 16:57:04;;;;;;;13.82;7.22;;;;;;;;;;6275154;28;20499;-58
2022/05/27 17:00:07;;;;;;;13.77;6.60;;;;;;;;;;6266456;28;20048;-59
2022/05/27 17:03:08;;;;;;;12.20;5.70;;;;;;;;;;6261893;28;20045;-56
2022/05/27 17:06:11;;;;;;;10.63;5.75;;;;;;;;;;6259795;28;20049;-58
2022/05/27 17:09:12;;;;;;;9.60;5.45;;;;;;;;;;6264949;28;21247;-59
2022/05/27 17:12:12;;;;;;;14.88;5.90;;;;;;;;;;6265428;28;20053;-58
2022/05/27 17:15:17;;;;;;;9.73;5.35;;;;;;;;;;6262910;28;20143;-60
2022/05/27 17:18:17;;;;;;;10.05;6.15;;;;;;;;;;6258654;28;20111;-58
2022/05/27 17:21:19;;;;;;;13.27;6.65;;;;;;;;;;6269464;28;21138;-58
2022/05/27 17:24:22;;;;;;;9.93;5.90;;;;;;;;;;6266368;28;20610;-59
2022/05/27 17:27:23;;;;;;;12.07;6.25;;;;;;;;;;6263308;28;20528;-58
2022/05/27 17:30:24;;;;;;;12.82;7.57;;;;;;;;;;6265953;28;20128;-58
2022/05/27 17:33:24;;;;;;;22.75;8.93;;;;;;;;;;6258607;28;20132;-58
2022/05/27 17:36:25;;;;;;;13.82;6.72;;;;;;;;;;6259069;28;21100;-58
2022/05/27 17:39:27;;;;;;;11.93;6.25;;;;;;;;;;6253546;28;20586;-59
2022/05/27 17:42:27;;;;;;;12.10;6.10;;;;;;;;;;6266459;28;20055;-58
2022/05/27 17:45:28;;;;;;;11.68;6.15;;;;;;;;;;6259819;28;20048;-59
2022/05/27 17:51:47;;;;;;;13.07;6.45;;;;;;;;;;6264492;28;20076;-59
2022/05/27 17:54:49;;;;;;;12.85;6.03;;;;;;;;;;6261965;28;20068;-58
2022/05/27 17:57:49;;;;;;;14.75;6.97;;;;;;;;;;6261934;28;20513;-59
2022/05/27 18:00:50;;;;;;;16.23;7.65;;;;;;;;;;6278858;28;20051;-59
2022/05/27 18:03:51;;;;;;;13.55;7.35;;;;;;;;;;6274940;28;20455;-57
2022/05/27 18:06:51;;;;;;;13.43;8.00;;;;;;;;;;6268521;28;20055;-58
2022/05/27 18:09:52;;;;;;;15.98;7.57;;;;;;;;;;6271501;28;20423;-59
2022/05/27 18:12:53;;;;;;;14.60;8.00;;;;;;;;;;6277396;28;20059;-59
2022/05/27 18:15:53;;;;;;;16.05;8.73;;;;;;;;;;6273343;28;20065;-59
2022/05/27 18:18:54;;;;;;;13.85;7.57;;;;;;;;;;6265426;28;20068;-58
2022/05/27 18:21:54;;;;;;;13.75;7.82;;;;;;;;;;6270678;28;20049;-57
2022/05/27 18:24:55;;;;;;;16.02;8.65;;;;;;;;;;6270952;28;20059;-59
2022/05/27 18:27:56;;;;;;;15.77;8.77;;;;;;;;;;6267297;28;20841;-57
2022/05/27 18:30:57;;;;;;;17.98;9.85;;;;;;;;;;6272534;28;20048;-60
2022/05/27 18:33:58;;;;;;;20.13;9.88;;;;;;;;;;6273614;28;20072;-59
2022/05/27 18:36:59;;;;;;;16.42;9.63;;;;;;;;;;6272396;28;20048;-59
2022/05/27 18:40:00;;;;;;;18.13;10.18;;;;;;;;;;6275227;28;20507;-58
2022/05/27 18:43:00;;;;;;;17.77;10.52;;;;;;;;;;6278163;28;20050;-56
2022/05/27 18:46:01;;;;;;;22.50;12.07;;;;;;;;;;6278098;28;20214;-58
2022/05/27 18:49:02;;;;;;;21.75;11.68;;;;;;;;;;6278412;28;20036;-56
2022/05/27 18:52:05;;;;;;;18.20;9.63;;;;;;;;;;6280077;28;20163;-57
2022/05/27 18:55:07;;;;;;;17.60;10.23;;;;;;;;;;6277270;28;20044;-59
2022/05/27 18:58:10;;;;;;;17.58;10.80;;;;;;;;;;6274562;28;21164;-57
2022/05/27 19:01:10;;;;;;;16.80;10.05;;;;;;;;;;6279886;28;20044;-56
2022/05/27 19:04:12;;;;;;;14.02;8.68;;;;;;;;;;6279904;28;20045;-62
2022/05/27 19:07:12;;;;;;;13.35;7.93;;;;;;;;;;6276354;28;20135;-55
2022/05/27 19:10:17;;;;;;;13.73;7.72;;;;;;;;;;6278992;28;20052;-59
2022/05/27 19:13:18;;;;;;;14.48;7.93;;;;;;;;;;6258190;28;20059;-60
2022/05/27 19:16:19;;;;;;;16.90;8.43;;;;;;;;;;6272816;28;20140;-55
2022/05/27 19:22:39;;;;;;;18.00;9.98;;;;;;;;;;6277144;28;20080;-59
2022/05/27 19:25:41;;;;;;;17.48;9.25;;;;;;;;;;6280447;28;20046;-59
2022/05/27 19:28:42;;;;;;;15.52;9.07;;;;;;;;;;6274719;28;20487;-59